KONTMMSD

Guest
Details From KONT - Ontario Intl
To MMSD - LOS CABOS INTL
Flight Number -
Tags decoded
Created
Modified
Stats Distance 775 nm / 1,435 km
Max Altitude 0 ft / 0 m
Waypoints 5
Social Downloads 1
Likes 0
Share VATSIM

Download

Looking for another format? Having issues loading an existing format? Contact us
Advertisement - Login to hide

Notes

Requested: KONT PDZ J93 AXASA UJ9 LAP J1 AMARI MMSD Unmatched points: J93 AXASA UJ9 J1

Route

KONT PDZ LAP AMARI MMSD

ID Type Via Altitude Latitude Longitude Leg Dist Tot Dist Heading (true) Name
O KONT APT - 0 ft / 0 m 34.05592˚ -117.60085˚ - 0 nm - Ontario Intl
PDZ VOR - 0 ft / 0 m 33.91833˚ -117.53000˚ 8 nm 8 nm 157° / 157° PARADISE VORTAC
LAP VOR - 0 ft / 0 m 24.08560˚ -110.35866˚ 699 nm 708 nm 146° / 149° LA PAZ VOR-DME
AMARI FIX - 0 ft / 0 m 23.61403˚ -110.04065˚ 33 nm 742 nm 148° / 148° -
O MMSD APT - 0 ft / 0 m 23.15185˚ -109.72104˚ 32 nm 775 nm 148° / 148° LOS CABOS INTL

Altitude Profile

Advertisement - Login to hide

Weather


0- 5 10 15 20 25 30 35+ Temperature / ° C

Clouds and Precipitation
Forecast for 2018-05-23 18:00 UTC. Updated an hour ago

Ground ~20,000 ft ~40,000 ft Winds

KONT

Details ICAO KONT (ONT)
Name Ontario Intl
Region United States
Timezone America/Los_Angeles (UTC-7.0)
Stats Elevation 944 ft / 288 m (AMSL)
Location 34.055917° -117.600853°
Runways 2
Magnetic Variation 11.824° E

METAR

KONT 231753Z VRB05KT 6SM HZ BKN022 OVC029 17/11 A2998 RMK AO2 SLP147 BKN V SCT T01720111 10172 20139 52006

Decode

TAF

TAF KONT 231738Z 2318/2424 VRB05KT P6SM SCT020 OVC030 FM232000 26011KT P6SM BKN030 FM240400 VRB05KT P6SM SCT020 FM240900 VRB04KT P6SM OVC020 FM241900 25011KT P6SM SCT025 BKN035

Decode

Departure Runways

ID Width Length Bearing (true) Bearing (mag) Surface Threshold Offset Overrun Length
08L 151 ft / 46 m 12,279 ft / 3,743 m 89.96° 78.14° Concrete 997 ft / 304 m 400 ft / 122 m
26L 151 ft / 46 m 10,269 ft / 3,130 m 269.97° 258.15° Concrete 0 ft / 0 m 400 ft / 122 m
26R 151 ft / 46 m 12,279 ft / 3,743 m 269.99° 258.17° Concrete 0 ft / 0 m 400 ft / 122 m
8R 151 ft / 46 m 10,269 ft / 3,130 m 89.95° 78.13° Concrete 0 ft / 0 m 400 ft / 122 m

MMSD

Details ICAO MMSD (SJD)
Name LOS CABOS INTL
Region Mexico
Timezone America/Mazatlan (UTC-6.0)
Stats Elevation 374 ft / 114 m (AMSL)
Location 23.151850° -109.721044°
Runways 1
Magnetic Variation 8.288° E

METAR

MMSD 231645Z 12006KT 12SM SKC 30/10 A2992

Decode

TAF

Not found

Destination Runways

ID Width Length Bearing (true) Bearing (mag) Surface Threshold Offset Overrun Length
16 148 ft / 45 m 9,857 ft / 3,004 m 173.75° 165.46° Asphalt 0 ft / 0 m 215 ft / 66 m
34 148 ft / 45 m 9,857 ft / 3,004 m 353.75° 345.46° Asphalt 0 ft / 0 m 200 ft / 61 m

Popular Alternatives